Flight Track Log - Related Links

Times and Time Zones

All times are in EDT time to prevent confusion due to time zone crossing. See the DAL110 flight status page for this flight to view local times or setup timezone preferences in your user account.

Time Position Orientation Groundspeed Altitude Reporting Facility
EDT Latitude Longitude Course Direction KTS MPH feet Rate Location/Type
Sat 07:26:00 PM -34.6003 -58.6329 339° North  Level FlightAware Approximate
Sat 07:27:00 PM -34.4886 -58.6847 339° North  Level FlightAware Approximate
Sat 07:28:00 PM -34.3770 -58.7364 339° North  Level FlightAware Approximate
Sat 07:29:00 PM -34.2653 -58.7879 339° North  Level FlightAware Approximate
Sat 07:30:00 PM -34.1536 -58.8394 339° North  Level FlightAware Approximate
Sat 07:31:00 PM -34.0419 -58.8907 339° North  Level FlightAware Approximate
Sat 07:32:00 PM -33.9301 -58.9418 339° North  Level FlightAware Approximate
Sat 07:33:00 PM -33.8183 -58.9928 339° North  Level FlightAware Approximate
Sat 07:34:00 PM -33.7065 -59.0437 339° North  Level FlightAware Approximate
Sat 07:35:00 PM -33.5947 -59.0944 339° North  Level FlightAware Approximate
Sat 07:36:00 PM -33.4829 -59.1450 339° North  Level FlightAware Approximate
Sat 07:37:00 PM -33.3711 -59.1955 339° North  Level FlightAware Approximate
Sat 07:38:00 PM -33.2592 -59.2459 339° North  Level FlightAware Approximate
Sat 07:39:00 PM -33.1449 -59.2978 339° North  Level FlightAware Approximate
Sat 07:40:00 PM -33.0332 -59.3485 339° North  Level FlightAware Approximate
Sat 07:41:00 PM -32.9215 -59.3991 339° North  Level FlightAware Approximate
Sat 07:42:00 PM -32.8097 -59.4496 339° North  Level FlightAware Approximate
Sat 07:43:00 PM -32.6979 -59.4999 339° North  Level FlightAware Approximate
Sat 07:44:00 PM -32.5829 -59.5516 339° North  Level FlightAware Approximate
Sat 07:45:00 PM -32.4679 -59.6031 339° North  Level FlightAware Approximate
Sat 07:46:00 PM -32.3529 -59.6544 339° North  Level FlightAware Approximate
Sat 07:47:00 PM -32.2379 -59.7057 339° North  Level FlightAware Approximate
Sat 07:48:00 PM -32.1228 -59.7568 339° North  Level FlightAware Approximate
Sat 07:49:00 PM -32.0077 -59.8078 339° North  Level FlightAware Approximate
Sat 07:50:00 PM -31.8926 -59.8586 339° North  Level FlightAware Approximate
Sat 07:51:00 PM -31.7775 -59.9093 339° North  Level FlightAware Approximate
Sat 07:52:00 PM -31.6624 -59.9599 339° North  Level FlightAware Approximate
Sat 07:53:00 PM -31.5472 -60.0104 340° North  Level FlightAware Approximate
Sat 07:54:00 PM -31.4320 -60.0608 340° North  Level FlightAware Approximate
Sat 07:55:00 PM -31.3168 -60.1110 340° North  Level FlightAware Approximate
Sat 07:56:00 PM -31.2016 -60.1611 340° North  Level FlightAware Approximate
Sat 07:57:00 PM -31.0864 -60.2111 340° North  Level FlightAware Approximate
Sat 07:58:00 PM -30.9711 -60.2609 340° North  Level FlightAware Approximate
Sat 07:59:00 PM -30.8558 -60.3107 340° North  Level FlightAware Approximate
Sat 08:00:00 PM -30.7405 -60.3603 340° North  Level FlightAware Approximate
Sat 08:01:00 PM -30.6252 -60.4098 340° North  Level FlightAware Approximate
Sat 08:02:00 PM -30.5099 -60.4592 340° North  Level FlightAware Approximate
Sat 08:03:00 PM -30.3945 -60.5085 340° North  Level FlightAware Approximate
Sat 08:04:00 PM -30.2791 -60.5576 340° North  Level FlightAware Approximate
Sat 08:05:00 PM -30.1637 -60.6067 340° North  Level FlightAware Approximate
Sat 08:06:00 PM -30.0483 -60.6556 340° North  Level FlightAware Approximate
Sat 08:07:00 PM -29.9329 -60.7044 340° North  Level FlightAware Approximate
Sat 08:08:00 PM -29.8175 -60.7531 340° North  Level FlightAware Approximate
Sat 08:09:00 PM -29.7020 -60.8017 340° North  Level FlightAware Approximate
Sat 08:10:00 PM -29.5865 -60.8501 340° North  Level FlightAware Approximate
Sat 08:11:00 PM -29.4710 -60.8985 340° North  Level FlightAware Approximate
Sat 08:12:00 PM -29.3555 -60.9467 340° North  Level FlightAware Approximate
Sat 08:13:00 PM -29.2400 -60.9949 340° North  Level FlightAware Approximate
Sat 08:14:00 PM -29.1244 -61.0429 340° North  Level FlightAware Approximate
Sat 08:15:00 PM -29.0088 -61.0908 340° North  Level FlightAware Approximate
Sat 08:16:00 PM -28.8932 -61.1386 340° North  Level FlightAware Approximate
Sat 08:17:00 PM -28.7776 -61.1864 340° North  Level FlightAware Approximate
Sat 08:18:00 PM -28.6620 -61.2340 340° North  Level FlightAware Approximate
Sat 08:19:00 PM -28.5464 -61.2815 340° North  Level FlightAware Approximate
Sat 08:20:00 PM -28.4307 -61.3289 340° North  Level FlightAware Approximate
Sat 08:21:00 PM -28.3151 -61.3762 340° North  Level FlightAware Approximate
Sat 08:22:00 PM -28.1994 -61.4234 340° North  Level FlightAware Approximate
Sat 08:23:00 PM -28.0837 -61.4704 340° North  Level FlightAware Approximate
Sat 08:24:00 PM -27.9680 -61.5174 340° North  Level FlightAware Approximate
Sat 08:25:00 PM -27.8522 -61.5643 340° North  Level FlightAware Approximate
Sat 08:26:00 PM -27.7365 -61.6111 340° North  Level FlightAware Approximate
Sat 08:27:00 PM -27.6207 -61.6578 340° North  Level FlightAware Approximate
Sat 08:28:00 PM -27.5049 -61.7044 340° North  Level FlightAware Approximate
Sat 08:29:00 PM -27.3891 -61.7509 340° North  Level FlightAware Approximate
Sat 08:30:00 PM -27.2733 -61.7973 340° North  Level FlightAware Approximate
Sat 08:31:00 PM -27.1575 -61.8436 340° North  Level FlightAware Approximate
Sat 08:32:00 PM -27.0416 -61.8898 340° North  Level FlightAware Approximate
Sat 08:33:00 PM -26.9258 -61.9359 340° North  Level FlightAware Approximate
Sat 08:34:00 PM -26.8099 -61.9819 340° North  Level FlightAware Approximate
Sat 08:35:00 PM -26.6940 -62.0278 341° North  Level FlightAware Approximate
Sat 08:36:00 PM -26.5781 -62.0736 341° North  Level FlightAware Approximate
Sat 08:37:00 PM -26.4622 -62.1194 341° North  Level FlightAware Approximate
Sat 08:38:00 PM -26.3463 -62.1650 341° North  Level FlightAware Approximate
Sat 08:39:00 PM -26.2303 -62.2105 341° North  Level FlightAware Approximate
Sat 08:40:00 PM -26.1144 -62.2560 341° North  Level FlightAware Approximate
Sat 08:41:00 PM -25.9984 -62.3014 341° North  Level FlightAware Approximate
Sat 08:42:00 PM -25.8824 -62.3467 341° North  Level FlightAware Approximate
Sat 08:43:00 PM -25.7664 -62.3918 341° North  Level FlightAware Approximate
Sat 08:44:00 PM -25.6504 -62.4370 341° North  Level FlightAware Approximate
Sat 08:45:00 PM -25.5343 -62.4820 341° North  Level FlightAware Approximate
Sat 08:46:00 PM -25.4183 -62.5269 341° North  Level FlightAware Approximate
Sat 08:47:00 PM -25.3022 -62.5717 341° North  Level FlightAware Approximate
Sat 08:48:00 PM -25.1862 -62.6165 341° North  Level FlightAware Approximate
Sat 08:49:00 PM -25.0701 -62.6612 341° North  Level FlightAware Approximate
Sat 08:50:00 PM -24.9540 -62.7057 341° North  Level FlightAware Approximate
Sat 08:51:00 PM -24.8379 -62.7502 341° North  Level FlightAware Approximate
Sat 08:52:00 PM -24.7218 -62.7947 341° North  Level FlightAware Approximate
Sat 08:53:00 PM -24.6056 -62.8390 341° North  Level FlightAware Approximate
Sat 08:54:00 PM -24.4895 -62.8832 341° North  Level FlightAware Approximate
Sat 08:55:00 PM -24.3733 -62.9274 341° North  Level FlightAware Approximate
Sat 08:56:00 PM -24.2571 -62.9715 341° North  Level FlightAware Approximate
Sat 08:57:00 PM -24.1409 -63.0155 341° North  Level FlightAware Approximate
Sat 08:58:00 PM -24.0247 -63.0594 341° North  Level FlightAware Approximate
Sat 08:59:00 PM -23.9085 -63.1033 341° North  Level FlightAware Approximate
Sat 09:00:00 PM -23.7923 -63.1470 341° North  Level FlightAware Approximate
Sat 09:01:00 PM -23.6761 -63.1907 341° North  Level FlightAware Approximate
Sat 09:02:00 PM -23.5598 -63.2343 341° North  Level FlightAware Approximate
Sat 09:03:00 PM -23.4436 -63.2779 341° North  Level FlightAware Approximate
Sat 09:04:00 PM -23.3273 -63.3214 341° North  Level FlightAware Approximate
Sat 09:05:00 PM -23.2110 -63.3647 341° North  Level FlightAware Approximate
Sat 09:06:00 PM -23.0947 -63.4080 341° North  Level FlightAware Approximate
Sat 09:07:00 PM -22.9784 -63.4513 341° North  Level FlightAware Approximate
Sat 09:08:00 PM -22.8621 -63.4944 341° North  Level FlightAware Approximate
Sat 09:09:00 PM -22.7457 -63.5375 341° North  Level FlightAware Approximate
Sat 09:10:00 PM -22.6294 -63.5805 341° North  Level FlightAware Approximate
Sat 09:11:00 PM -22.5130 -63.6235 341° North  Level FlightAware Approximate
Sat 09:12:00 PM -22.3967 -63.6663 341° North  Level FlightAware Approximate
Sat 09:13:00 PM -22.2803 -63.7091 341° North  Level FlightAware Approximate
Sat 09:14:00 PM -22.1639 -63.7519 341° North  Level FlightAware Approximate
Sat 09:15:00 PM -22.0475 -63.7945 341° North  Level FlightAware Approximate
Sat 09:16:00 PM -21.9311 -63.8371 341° North  Level FlightAware Approximate
Sat 09:17:00 PM -21.8147 -63.8796 341° North  Level FlightAware Approximate
Sat 09:18:00 PM -21.6982 -63.9220 341° North  Level FlightAware Approximate
Sat 09:19:00 PM -21.5818 -63.9644 341° North  Level FlightAware Approximate
Sat 09:20:00 PM -21.4653 -64.0067 341° North  Level FlightAware Approximate
Sat 09:21:00 PM -21.3489 -64.0490 341° North  Level FlightAware Approximate
Sat 09:22:00 PM -21.2324 -64.0911 341° North  Level FlightAware Approximate
Sat 09:23:00 PM -21.1159 -64.1332 341° North  Level FlightAware Approximate
Sat 09:24:00 PM -20.9994 -64.1753 341° North  Level FlightAware Approximate
Sat 09:25:00 PM -20.8829 -64.2173 341° North  Level FlightAware Approximate
Sat 09:26:00 PM -20.7664 -64.2592 341° North  Level FlightAware Approximate
Sat 09:27:00 PM -20.6498 -64.3010 341° North  Level FlightAware Approximate
Sat 09:28:00 PM -20.5333 -64.3428 341° North  Level FlightAware Approximate
Sat 09:29:00 PM -20.4167 -64.3845 341° North  Level FlightAware Approximate
Sat 09:30:00 PM -20.3002 -64.4262 341° North  Level FlightAware Approximate
Sat 09:31:00 PM -20.1836 -64.4678 341° North  Level FlightAware Approximate
Sat 09:32:00 PM -20.0670 -64.5093 341° North  Level FlightAware Approximate
Sat 09:33:00 PM -19.9505 -64.5508 342° North  Level FlightAware Approximate
Sat 09:34:00 PM -19.8339 -64.5922 342° North  Level FlightAware Approximate
Sat 09:35:00 PM -19.7172 -64.6335 342° North  Level FlightAware Approximate
Sat 09:36:00 PM -19.6006 -64.6748 342° North  Level FlightAware Approximate
Sat 09:37:00 PM -19.4840 -64.7160 342° North  Level FlightAware Approximate
Sat 09:38:00 PM -19.3675 -64.7571 342° North  Level FlightAware Approximate
Sat 09:39:00 PM -19.2511 -64.7982 342° North  Level FlightAware Approximate
Sat 09:40:00 PM -19.1346 -64.8392 342° North  Level FlightAware Approximate
Sat 09:41:00 PM -19.0182 -64.8801 342° North  Level FlightAware Approximate
Sat 09:42:00 PM -18.9017 -64.9210 342° North  Level FlightAware Approximate
Sat 09:43:00 PM -18.7852 -64.9618 342° North  Level FlightAware Approximate
Sat 09:44:00 PM -18.6687 -65.0025 342° North  Level FlightAware Approximate
Sat 09:45:00 PM -18.5522 -65.0432 342° North  Level FlightAware Approximate
Sat 09:46:00 PM -18.4357 -65.0839 342° North  Level FlightAware Approximate
Sat 09:47:00 PM -18.3192 -65.1245 342° North  Level FlightAware Approximate
Sat 09:48:00 PM -18.2027 -65.1650 342° North  Level FlightAware Approximate
Sat 09:49:00 PM -18.0861 -65.2055 342° North  Level FlightAware Approximate
Sat 09:50:00 PM -17.9696 -65.2459 342° North  Level FlightAware Approximate
Sat 09:51:00 PM -17.8530 -65.2862 342° North  Level FlightAware Approximate
Sat 09:52:00 PM -17.7365 -65.3266 342° North  Level FlightAware Approximate
Sat 09:53:00 PM -17.6199 -65.3668 342° North  Level FlightAware Approximate
Sat 09:54:00 PM -17.5033 -65.4070 342° North  Level FlightAware Approximate
Sat 09:55:00 PM -17.3867 -65.4472 342° North  Level FlightAware Approximate
Sat 09:56:00 PM -17.2701 -65.4873 342° North  Level FlightAware Approximate
Sat 09:57:00 PM -17.1535 -65.5274 342° North  Level FlightAware Approximate
Sat 09:58:00 PM -17.0369 -65.5674 342° North  Level FlightAware Approximate
Sat 09:59:00 PM -16.9203 -65.6073 342° North  Level FlightAware Approximate
Sat 10:00:00 PM -16.8037 -65.6472 342° North  Level FlightAware Approximate
Sat 10:01:00 PM -16.6870 -65.6871 342° North  Level FlightAware Approximate
Sat 10:02:00 PM -16.5704 -65.7269 342° North  Level FlightAware Approximate
Sat 10:03:00 PM -16.4537 -65.7667 342° North  Level FlightAware Approximate
Sat 10:04:00 PM -16.3371 -65.8064 342° North  Level FlightAware Approximate
Sat 10:05:00 PM -16.2204 -65.8461 342° North  Level FlightAware Approximate
Sat 10:06:00 PM -16.1038 -65.8857 342° North  Level FlightAware Approximate
Sat 10:07:00 PM -15.9871 -65.9253 342° North  Level FlightAware Approximate
Sat 10:08:00 PM -15.8704 -65.9648 342° North  Level FlightAware Approximate
Sat 10:09:00 PM -15.7537 -66.0043 342° North  Level FlightAware Approximate
Sat 10:10:00 PM -15.6370 -66.0437 342° North  Level FlightAware Approximate
Sat 10:11:00 PM -15.5203 -66.0831 342° North  Level FlightAware Approximate
Sat 10:12:00 PM -15.4036 -66.1225 342° North  Level FlightAware Approximate
Sat 10:13:00 PM -15.2868 -66.1618 342° North  Level FlightAware Approximate
Sat 10:14:00 PM -15.1701 -66.2010 342° North  Level FlightAware Approximate
Sat 10:15:00 PM -15.0534 -66.2402 342° North  Level FlightAware Approximate
Sat 10:16:00 PM -14.9367 -66.2794 342° North  Level FlightAware Approximate
Sat 10:17:00 PM -14.8199 -66.3185 342° North  Level FlightAware Approximate
Sat 10:18:00 PM -14.7031 -66.3576 342° North  Level FlightAware Approximate
Sat 10:19:00 PM -14.5864 -66.3967 342° North  Level FlightAware Approximate
Sat 10:20:00 PM -14.4696 -66.4357 342° North  Level FlightAware Approximate
Sat 10:21:00 PM -14.3528 -66.4747 342° North  Level FlightAware Approximate
Sat 10:22:00 PM -14.2361 -66.5136 342° North  Level FlightAware Approximate
Sat 10:23:00 PM -14.1193 -66.5525 342° North  Level FlightAware Approximate
Sat 10:24:00 PM -14.0025 -66.5913 342° North  Level FlightAware Approximate
Sat 10:25:00 PM -13.8857 -66.6301 342° North  Level FlightAware Approximate
Sat 10:26:00 PM -13.7689 -66.6689 342° North  Level FlightAware Approximate
Sat 10:27:00 PM -13.6521 -66.7076 342° North  Level FlightAware Approximate
Sat 10:28:00 PM -13.5352 -66.7463 342° North  Level FlightAware Approximate
Sat 10:29:00 PM -13.4184 -66.7850 342° North  Level FlightAware Approximate
Sat 10:30:00 PM -13.3016 -66.8236 342° North  Level FlightAware Approximate
Sat 10:31:00 PM -13.1848 -66.8621 342° North  Level FlightAware Approximate
Sat 10:32:00 PM -13.0679 -66.9007 342° North  Level FlightAware Approximate
Sat 10:33:00 PM -12.9511 -66.9392 342° North  Level FlightAware Approximate
Sat 10:34:00 PM -12.8342 -66.9777 342° North  Level FlightAware Approximate
Sat 10:35:00 PM -12.7174 -67.0161 342° North  Level FlightAware Approximate
Sat 10:36:00 PM -12.6005 -67.0545 342° North  Level FlightAware Approximate
Sat 10:37:00 PM -12.4836 -67.0928 342° North  Level FlightAware Approximate
Sat 10:38:00 PM -12.3668 -67.1312 342° North  Level FlightAware Approximate
Sat 10:39:00 PM -12.2499 -67.1695 342° North  Level FlightAware Approximate
Sat 10:40:00 PM -12.1330 -67.2077 342° North  Level FlightAware Approximate
Sat 10:41:00 PM -12.0161 -67.2459 342° North  Level FlightAware Approximate
Sat 10:42:00 PM -11.8992 -67.2841 342° North  Level FlightAware Approximate
Sat 10:43:00 PM -11.7823 -67.3223 342° North  Level FlightAware Approximate
Sat 10:44:00 PM -11.6654 -67.3604 342° North  Level FlightAware Approximate
Sat 10:45:00 PM -11.5485 -67.3985 342° North  Level FlightAware Approximate
Sat 10:46:00 PM -11.4316 -67.4366 342° North  Level FlightAware Approximate
Sat 10:47:00 PM -11.3146 -67.4746 342° North  Level FlightAware Approximate
Sat 10:48:00 PM -11.1977 -67.5126 342° North  Level FlightAware Approximate
Sat 10:49:00 PM -11.0808 -67.5506 342° North  Level FlightAware Approximate
Sat 10:50:00 PM -10.9639 -67.5885 342° North  Level FlightAware Approximate
Sat 10:51:00 PM -10.8469 -67.6264 342° North  Level FlightAware Approximate
Sat 10:52:00 PM -10.7300 -67.6643 342° North  Level FlightAware Approximate
Sat 10:53:00 PM -10.6130 -67.7021 342° North  Level FlightAware Approximate
Sat 10:54:00 PM -10.4961 -67.7400 342° North  Level FlightAware Approximate
Sat 10:55:00 PM -10.3791 -67.7778 342° North  Level FlightAware Approximate
Sat 10:56:00 PM -10.2622 -67.8155 342° North  Level FlightAware Approximate
Sat 10:57:00 PM -10.1452 -67.8533 342° North  Level FlightAware Approximate
Sat 10:58:00 PM -10.0282 -67.8910 342° North  Level FlightAware Approximate
Sat 10:59:00 PM -9.9113 -67.9286 342° North  Level FlightAware Approximate
Sat 11:00:00 PM -9.7943 -67.9663 342° North  Level FlightAware Approximate
Sat 11:01:00 PM -9.6773 -68.0039 342° North  Level FlightAware Approximate
Sat 11:02:00 PM -9.5603 -68.0415 342° North  Level FlightAware Approximate
Sat 11:03:00 PM -9.4433 -68.0791 342° North  Level FlightAware Approximate
Sat 11:04:00 PM -9.3263 -68.1167 342° North  Level FlightAware Approximate
Sat 11:05:00 PM -9.2093 -68.1542 342° North  Level FlightAware Approximate
Sat 11:06:00 PM -9.0923 -68.1917 342° North  Level FlightAware Approximate
Sat 11:07:00 PM -8.9753 -68.2292 342° North  Level FlightAware Approximate
Sat 11:08:00 PM -8.8583 -68.2666 342° North  Level FlightAware Approximate
Sat 11:09:00 PM -8.7413 -68.3040 342° North  Level FlightAware Approximate
Sat 11:10:00 PM -8.6243 -68.3415 342° North  Level FlightAware Approximate
Sat 11:11:00 PM -8.5072 -68.3788 342° North  Level FlightAware Approximate
Sat 11:12:00 PM -8.3902 -68.4162 342° North  Level FlightAware Approximate
Sat 11:13:00 PM -8.2732 -68.4535 342° North  Level FlightAware Approximate
Sat 11:14:00 PM -8.1561 -68.4908 342° North  Level FlightAware Approximate
Sat 11:15:00 PM -8.0391 -68.5281 342° North  Level FlightAware Approximate
Sat 11:16:00 PM -7.9221 -68.5654 342° North  Level FlightAware Approximate
Sat 11:17:00 PM -7.8050 -68.6027 342° North  Level FlightAware Approximate
Sat 11:18:00 PM -7.6880 -68.6399 343° North  Level FlightAware Approximate
Sat 11:19:00 PM -7.5709 -68.6771 343° North  Level FlightAware Approximate
Sat 11:20:00 PM -7.4539 -68.7143 343° North  Level FlightAware Approximate
Sat 11:21:00 PM -7.3368 -68.7514 343° North  Level FlightAware Approximate
Sat 11:22:00 PM -7.2198 -68.7886 343° North  Level FlightAware Approximate
Sat 11:23:00 PM -7.1027 -68.8257 343° North  Level FlightAware Approximate
Sat 11:24:00 PM -6.9856 -68.8628 343° North  Level FlightAware Approximate
Sat 11:25:00 PM -6.8686 -68.8999 343° North  Level FlightAware Approximate
Sat 11:26:00 PM -6.7515 -68.9370 343° North  Level FlightAware Approximate
Sat 11:27:00 PM -6.6344 -68.9741 343° North  Level FlightAware Approximate
Sat 11:28:00 PM -6.5174 -69.0111 343° North  Level FlightAware Approximate
Sat 11:29:00 PM -6.4003 -69.0481 343° North  Level FlightAware Approximate
Sat 11:30:00 PM -6.2832 -69.0851 343° North  Level FlightAware Approximate
Sat 11:31:00 PM -6.1661 -69.1221 343° North  Level FlightAware Approximate
Sat 11:32:00 PM -6.0490 -69.1591 343° North  Level FlightAware Approximate
Sat 11:33:00 PM -5.9319 -69.1960 343° North  Level FlightAware Approximate
Sat 11:34:00 PM -5.8148 -69.2330 343° North  Level FlightAware Approximate
Sat 11:35:00 PM -5.6978 -69.2699 343° North  Level FlightAware Approximate
Sat 11:36:00 PM -5.5806 -69.3068 343° North  Level FlightAware Approximate
Sat 11:37:00 PM -5.4636 -69.3437 343° North  Level FlightAware Approximate
Sat 11:38:00 PM -5.3464 -69.3806 343° North  Level FlightAware Approximate
Sat 11:39:00 PM -5.2294 -69.4174 343° North  Level FlightAware Approximate
Sat 11:40:00 PM -5.1122 -69.4543 343° North  Level FlightAware Approximate
Sat 11:41:00 PM -4.9951 -69.4911 343° North  Level FlightAware Approximate
Sat 11:42:00 PM -4.8780 -69.5279 343° North  Level FlightAware Approximate
Sat 11:43:00 PM -4.7609 -69.5648 343° North  Level FlightAware Approximate
Sat 11:44:00 PM -4.6438 -69.6015 343° North  Level FlightAware Approximate
Sat 11:45:00 PM -4.5267 -69.6383 343° North  Level FlightAware Approximate
Sat 11:46:00 PM -4.4096 -69.6751 343° North  Level FlightAware Approximate
Sat 11:47:00 PM -4.2925 -69.7119 343° North  Level FlightAware Approximate
Sat 11:48:00 PM -4.1753 -69.7486 343° North  Level FlightAware Approximate
Sat 11:49:00 PM -4.0582 -69.7854 343° North  Level FlightAware Approximate
Sat 11:50:00 PM -3.9411 -69.8221 343° North  Level FlightAware Approximate
Sat 11:51:00 PM -3.8240 -69.8588 343° North  Level FlightAware Approximate
Sat 11:52:00 PM -3.7069 -69.8955 343° North  Level FlightAware Approximate
Sat 11:53:00 PM -3.5897 -69.9322 343° North  Level FlightAware Approximate
Sat 11:54:00 PM -3.4726 -69.9689 343° North  Level FlightAware Approximate
Sat 11:55:00 PM -3.3555 -70.0056 343° North  Level FlightAware Approximate
Sat 11:56:00 PM -3.2383 -70.0423 343° North  Level FlightAware Approximate
Sat 11:57:00 PM -3.1212 -70.0789 343° North  Level FlightAware Approximate
Sat 11:58:00 PM -3.0041 -70.1156 343° North  Level FlightAware Approximate
Sat 11:59:00 PM -2.8869 -70.1522 343° North  Level FlightAware Approximate
Sun 12:00:00 AM -2.7698 -70.1889 343° North  Level FlightAware Approximate
Sun 12:01:00 AM -2.6527 -70.2255 343° North  Level FlightAware Approximate
Sun 12:02:00 AM -2.5355 -70.2621 343° North  Level FlightAware Approximate
Sun 12:03:00 AM -2.4184 -70.2988 343° North  Level FlightAware Approximate
Sun 12:04:00 AM -2.3010 -70.3354 343° North  Level FlightAware Approximate
Sun 12:05:00 AM -2.1837 -70.3721 343° North  Level FlightAware Approximate
Sun 12:06:00 AM -2.0663 -70.4088 343° North  Level FlightAware Approximate
Sun 12:07:00 AM -1.9490 -70.4454 343° North  Level FlightAware Approximate
Sun 12:08:00 AM -1.8317 -70.4821 343° North  Level FlightAware Approximate
Sun 12:09:00 AM -1.7143 -70.5187 343° North  Level FlightAware Approximate
Sun 12:10:00 AM -1.5970 -70.5554 343° North  Level FlightAware Approximate
Sun 12:11:00 AM -1.4797 -70.5920 343° North  Level FlightAware Approximate
Sun 12:12:00 AM -1.3623 -70.6286 343° North  Level FlightAware Approximate
Sun 12:13:00 AM -1.2450 -70.6653 343° North  Level FlightAware Approximate
Sun 12:14:00 AM -1.1276 -70.7019 343° North  Level FlightAware Approximate
Sun 12:15:00 AM -1.0103 -70.7385 343° North  Level FlightAware Approximate
Sun 12:16:00 AM -0.8929 -70.7751 343° North  Level FlightAware Approximate
Sun 12:17:00 AM -0.7756 -70.8118 343° North  Level FlightAware Approximate
Sun 12:18:00 AM -0.6582 -70.8484 343° North  Level FlightAware Approximate
Sun 12:19:00 AM -0.5409 -70.8850 343° North  Level FlightAware Approximate
Sun 12:20:00 AM -0.4235 -70.9216 343° North  Level FlightAware Approximate
Sun 12:21:00 AM -0.3062 -70.9582 343° North  Level FlightAware Approximate
Sun 12:22:00 AM -0.1888 -70.9949 343° North  Level FlightAware Approximate
Sun 12:23:00 AM -0.0715 -71.0315 343° North  Level FlightAware Approximate
Sun 12:24:00 AM 0.0459 -71.0681 343° North  Level FlightAware Approximate
Sun 12:25:00 AM 0.1632 -71.1047 343° North  Level FlightAware Approximate
Sun 12:26:00 AM 0.2806 -71.1413 343° North  Level FlightAware Approximate
Sun 12:27:00 AM 0.3979 -71.1779 343° North  Level FlightAware Approximate
Sun 12:28:00 AM 0.5153 -71.2145 343° North  Level FlightAware Approximate
Sun 12:29:00 AM 0.6326 -71.2512 343° North  Level FlightAware Approximate
Sun 12:30:00 AM 0.7500 -71.2878 343° North  Level FlightAware Approximate
Sun 12:31:00 AM 0.8673 -71.3244 343° North  Level FlightAware Approximate
Sun 12:32:00 AM 0.9847 -71.3610 343° North  Level FlightAware Approximate
Sun 12:33:00 AM 1.1020 -71.3976 343° North  Level FlightAware Approximate
Sun 12:34:00 AM 1.2194 -71.4343 343° North  Level FlightAware Approximate
Sun 12:35:00 AM 1.3367 -71.4709 343° North  Level FlightAware Approximate
Sun 12:36:00 AM 1.4540 -71.5075 343° North  Level FlightAware Approximate
Sun 12:37:00 AM 1.5714 -71.5442 343° North  Level FlightAware Approximate
Sun 12:38:00 AM 1.6887 -71.5808 343° North  Level FlightAware Approximate
Sun 12:39:00 AM 1.8061 -71.6175 343° North  Level FlightAware Approximate
Sun 12:40:00 AM 1.9234 -71.6541 343° North  Level FlightAware Approximate
Sun 12:41:00 AM 2.0408 -71.6908 343° North  Level FlightAware Approximate
Sun 12:42:00 AM 2.1581 -71.7274 343° North  Level FlightAware Approximate
Sun 12:43:00 AM 2.2754 -71.7641 343° North  Level FlightAware Approximate
Sun 12:44:00 AM 2.3928 -71.8008 343° North  Level FlightAware Approximate
Sun 12:45:00 AM 2.5101 -71.8375 343° North  Level FlightAware Approximate
Sun 12:46:00 AM 2.6274 -71.8742 343° North  Level FlightAware Approximate
Sun 12:47:00 AM 2.7448 -71.9109 343° North  Level FlightAware Approximate
Sun 12:48:00 AM 2.8620 -71.9476 343° North  Level FlightAware Approximate
Sun 12:49:00 AM 2.9793 -71.9844 343° North  Level FlightAware Approximate
Sun 12:50:00 AM 3.0966 -72.0213 343° North  Level FlightAware Approximate
Sun 12:51:00 AM 3.2139 -72.0582 343° North  Level FlightAware Approximate
Sun 12:52:00 AM 3.3312 -72.0950 343° North  Level FlightAware Approximate
Sun 12:53:00 AM 3.4485 -72.1319 343° North  Level FlightAware Approximate
Sun 12:54:00 AM 3.5657 -72.1688 343° North  Level FlightAware Approximate
Sun 12:55:00 AM 3.6830 -72.2057 343° North  Level FlightAware Approximate
Sun 12:56:00 AM 3.8003 -72.2427 343° North  Level FlightAware Approximate
Sun 12:57:00 AM 3.9176 -72.2796 343° North  Level FlightAware Approximate
Sun 12:58:00 AM 4.0348 -72.3165 343° North  Level FlightAware Approximate
Sun 12:59:00 AM 4.1521 -72.3535 343° North  Level FlightAware Approximate
Sun 01:00:00 AM 4.2694 -72.3904 343° North  Level FlightAware Approximate
Sun 01:01:00 AM 4.3867 -72.4274 343° North  Level FlightAware Approximate
Sun 01:02:00 AM 4.5039 -72.4644 343° North  Level FlightAware Approximate
Sun 01:03:00 AM 4.6212 -72.5014 343° North  Level FlightAware Approximate
Sun 01:04:00 AM 4.7384 -72.5384 343° North  Level FlightAware Approximate
Sun 01:05:00 AM 4.8557 -72.5754 343° North  Level FlightAware Approximate
Sun 01:06:00 AM 4.9730 -72.6124 343° North  Level FlightAware Approximate
Sun 01:07:00 AM 5.0902 -72.6495 343° North  Level FlightAware Approximate
Sun 01:08:00 AM 5.2075 -72.6865 343° North  Level FlightAware Approximate
Sun 01:09:00 AM 5.3247 -72.7236 343° North  Level FlightAware Approximate
Sun 01:10:00 AM 5.4420 -72.7607 343° North  Level FlightAware Approximate
Sun 01:11:00 AM 5.5592 -72.7978 343° North  Level FlightAware Approximate
Sun 01:12:00 AM 5.6765 -72.8349 343° North  Level FlightAware Approximate
Sun 01:13:00 AM 5.7937 -72.8721 343° North  Level FlightAware Approximate
Sun 01:14:00 AM 5.9110 -72.9092 343° North  Level FlightAware Approximate
Sun 01:15:00 AM 6.0282 -72.9464 343° North  Level FlightAware Approximate
Sun 01:16:00 AM 6.1454 -72.9836 343° North  Level FlightAware Approximate
Sun 01:17:00 AM 6.2627 -73.0207 342° North  Level FlightAware Approximate
Sun 01:18:00 AM 6.3799 -73.0580 342° North  Level FlightAware Approximate
Sun 01:19:00 AM 6.4971 -73.0952 342° North  Level FlightAware Approximate
Sun 01:20:00 AM 6.6143 -73.1324 342° North  Level FlightAware Approximate
Sun 01:21:00 AM 6.7316 -73.1697 342° North  Level FlightAware Approximate
Sun 01:22:00 AM 6.8488 -73.2070 342° North  Level FlightAware Approximate
Sun 01:23:00 AM 6.9660 -73.2443 342° North  Level FlightAware Approximate
Sun 01:24:00 AM 7.0832 -73.2816 342° North  Level FlightAware Approximate
Sun 01:25:00 AM 7.2004 -73.3189 342° North  Level FlightAware Approximate
Sun 01:26:00 AM 7.3176 -73.3563 342° North  Level FlightAware Approximate
Sun 01:27:00 AM 7.4349 -73.3937 342° North  Level FlightAware Approximate
Sun 01:28:00 AM 7.5521 -73.4311 342° North  Level FlightAware Approximate
Sun 01:29:00 AM 7.6693 -73.4685 342° North  Level FlightAware Approximate
Sun 01:30:00 AM 7.7864 -73.5059 342° North  Level FlightAware Approximate
Sun 01:31:00 AM 7.9036 -73.5434 342° North  Level FlightAware Approximate
Sun 01:32:00 AM 8.0208 -73.5809 342° North  Level FlightAware Approximate
Sun 01:33:00 AM 8.1380 -73.6184 342° North  Level FlightAware Approximate
Sun 01:34:00 AM 8.2552 -73.6559 342° North  Level FlightAware Approximate
Sun 01:35:00 AM 8.3724 -73.6934 342° North  Level FlightAware Approximate
Sun 01:36:00 AM 8.4896 -73.7310 342° North  Level FlightAware Approximate
Sun 01:37:00 AM 8.6067 -73.7686 342° North  Level FlightAware Approximate
Sun 01:38:00 AM 8.7239 -73.8062 342° North  Level FlightAware Approximate
Sun 01:39:00 AM 8.8411 -73.8438 342° North  Level FlightAware Approximate
Sun 01:40:00 AM 8.9582 -73.8815 342° North  Level FlightAware Approximate
Sun 01:41:00 AM 9.0754 -73.9192 342° North  Level FlightAware Approximate
Sun 01:42:00 AM 9.1925 -73.9569 342° North  Level FlightAware Approximate
Sun 01:43:00 AM 9.3097 -73.9946 342° North  Level FlightAware Approximate
Sun 01:44:00 AM 9.4268 -74.0324 342° North  Level FlightAware Approximate
Sun 01:45:00 AM 9.5440 -74.0702 342° North  Level FlightAware Approximate
Sun 01:46:00 AM 9.6611 -74.1080 342° North  Level FlightAware Approximate
Sun 01:47:00 AM 9.7782 -74.1458 342° North  Level FlightAware Approximate
Sun 01:48:00 AM 9.8954 -74.1837 342° North  Level FlightAware Approximate
Sun 01:49:00 AM 10.0125 -74.2216 342° North  Level FlightAware Approximate
Sun 01:50:00 AM 10.1296 -74.2595 342° North  Level FlightAware Approximate
Sun 01:51:00 AM 10.2467 -74.2974 342° North  Level FlightAware Approximate
Sun 01:52:00 AM 10.3638 -74.3354 342° North  Level FlightAware Approximate
Sun 01:53:00 AM 10.4809 -74.3734 342° North  Level FlightAware Approximate
Sun 01:54:00 AM 10.5980 -74.4114 342° North  Level FlightAware Approximate
Sun 01:55:00 AM 10.7151 -74.4495 342° North  Level FlightAware Approximate
Sun 01:56:00 AM 10.8322 -74.4876 342° North  Level FlightAware Approximate
Sun 01:57:00 AM 10.9493 -74.5257 342° North  Level FlightAware Approximate
Sun 01:58:00 AM 11.0664 -74.5639 342° North  Level FlightAware Approximate
Sun 01:59:00 AM 11.1835 -74.6020 342° North  Level FlightAware Approximate
Sun 02:00:00 AM 11.3006 -74.6403 342° North  Level FlightAware Approximate
Sun 02:01:00 AM 11.4176 -74.6785 342° North  Level FlightAware Approximate
Sun 02:02:00 AM 11.5347 -74.7168 342° North  Level FlightAware Approximate
Sun 02:03:00 AM 11.6517 -74.7551 342° North  Level FlightAware Approximate
Sun 02:04:00 AM 11.7688 -74.7934 342° North  Level FlightAware Approximate
Sun 02:05:00 AM 11.8858 -74.8318 342° North  Level FlightAware Approximate
Sun 02:06:00 AM 12.0029 -74.8702 342° North  Level FlightAware Approximate
Sun 02:07:00 AM 12.1199 -74.9086 342° North  Level FlightAware Approximate
Sun 02:08:00 AM 12.2369 -74.9471 342° North  Level FlightAware Approximate
Sun 02:09:00 AM 12.3540 -74.9856 342° North  Level FlightAware Approximate
Sun 02:10:00 AM 12.4710 -75.0241 342° North  Level FlightAware Approximate
Sun 02:11:00 AM 12.5880 -75.0627 342° North  Level FlightAware Approximate
Sun 02:12:00 AM 12.7050 -75.1013 342° North  Level FlightAware Approximate
Sun 02:13:00 AM 12.8220 -75.1400 342° North  Level FlightAware Approximate
Sun 02:14:00 AM 12.9390 -75.1787 342° North  Level FlightAware Approximate
Sun 02:15:00 AM 13.0560 -75.2174 342° North  Level FlightAware Approximate
Sun 02:16:00 AM 13.1730 -75.2561 342° North  Level FlightAware Approximate
Sun 02:17:00 AM 13.2900 -75.2949 342° North  Level FlightAware Approximate
Sun 02:18:00 AM 13.4070 -75.3337 342° North  Level FlightAware Approximate
Sun 02:19:00 AM 13.5239 -75.3726 342° North  Level FlightAware Approximate
Sun 02:20:00 AM 13.6409 -75.4115 342° North  Level FlightAware Approximate
Sun 02:21:00 AM 13.7579 -75.4505 342° North  Level FlightAware Approximate
Sun 02:22:00 AM 13.8748 -75.4894 342° North  Level FlightAware Approximate
Sun 02:23:00 AM 13.9918 -75.5285 342° North  Level FlightAware Approximate
Sun 02:24:00 AM 14.1087 -75.5675 342° North  Level FlightAware Approximate
Sun 02:25:00 AM 14.2256 -75.6066 342° North  Level FlightAware Approximate
Sun 02:26:00 AM 14.3426 -75.6458 342° North  Level FlightAware Approximate
Sun 02:27:00 AM 14.4595 -75.6850 342° North  Level FlightAware Approximate
Sun 02:28:00 AM 14.5764 -75.7242 342° North  Level FlightAware Approximate
Sun 02:29:00 AM 14.6933 -75.7635 342° North  Level FlightAware Approximate
Sun 02:30:00 AM 14.8102 -75.8028 342° North  Level FlightAware Approximate
Sun 02:31:00 AM 14.9271 -75.8421 342° North  Level FlightAware Approximate
Sun 02:32:00 AM 15.0440 -75.8814 342° North  Level FlightAware Approximate
Sun 02:33:00 AM 15.1610 -75.9206 342° North  Level FlightAware Approximate
Sun 02:34:00 AM 15.2780 -75.9598 342° North  Level FlightAware Approximate
Sun 02:35:00 AM 15.3949 -75.9990 342° North  Level FlightAware Approximate
Sun 02:36:00 AM 15.5119 -76.0383 342° North  Level FlightAware Approximate
Sun 02:37:00 AM 15.6288 -76.0777 342° North  Level FlightAware Approximate
Sun 02:38:00 AM 15.7457 -76.1171 342° North  Level FlightAware Approximate
Sun 02:39:00 AM 15.8626 -76.1565 342° North  Level FlightAware Approximate
Sun 02:40:00 AM 15.9796 -76.1960 342° North  Level FlightAware Approximate
Sun 02:41:00 AM 16.0965 -76.2355 342° North  Level FlightAware Approximate
Sun 02:42:00 AM 16.2134 -76.2751 342° North  Level FlightAware Approximate
Sun 02:43:00 AM 16.3303 -76.3147 342° North  Level FlightAware Approximate
Sun 02:44:00 AM 16.4471 -76.3544 342° North  Level FlightAware Approximate
Sun 02:45:00 AM 16.5642 -76.3935 342° North  Level FlightAware Approximate
Sun 02:46:00 AM 16.6813 -76.4325 342° North  Level FlightAware Approximate
Sun 02:47:00 AM 16.7988 -76.4716 342° North  Level FlightAware Approximate
Sun 02:48:00 AM 16.9164 -76.5108 342° North  Level FlightAware Approximate
Sun 02:49:00 AM 17.0339 -76.5500 342° North  Level FlightAware Approximate
Sun 02:50:00 AM 17.1514 -76.5892 342° North  Level FlightAware Approximate
Sun 02:51:00 AM 17.2688 -76.6288 342° North  Level FlightAware Approximate
Sun 02:52:00 AM 17.3860 -76.6688 342° North  Level FlightAware Approximate
Sun 02:53:00 AM 17.5033 -76.7089 342° North  Level FlightAware Approximate
Sun 02:54:00 AM 17.6205 -76.7491 342° North  Level FlightAware Approximate
Sun 02:55:00 AM 17.7377 -76.7893 342° North  Level FlightAware Approximate
Sun 02:56:00 AM 17.8550 -76.8296 342° North  Level FlightAware Approximate
Sun 02:57:00 AM 17.9722 -76.8699 342° North  Level FlightAware Approximate
Sun 02:58:00 AM 18.0894 -76.9103 342° North  Level FlightAware Approximate
Sun 02:59:00 AM 18.2066 -76.9508 342° North  Level FlightAware Approximate
Sun 03:00:00 AM 18.3238 -76.9912 342° North  Level FlightAware Approximate
Sun 03:01:00 AM 18.4410 -77.0318 342° North  Level FlightAware Approximate
Sun 03:02:00 AM 18.5582 -77.0724 342° North  Level FlightAware Approximate
Sun 03:03:00 AM 18.6753 -77.1130 342° North  Level FlightAware Approximate
Sun 03:04:00 AM 18.7925 -77.1537 342° North  Level FlightAware Approximate
Sun 03:05:00 AM 18.9097 -77.1945 342° North  Level FlightAware Approximate
Sun 03:06:00 AM 19.0268 -77.2353 342° North  Level FlightAware Approximate
Sun 03:07:00 AM 19.1439 -77.2762 342° North  Level FlightAware Approximate
Sun 03:08:00 AM 19.2610 -77.3171 342° North  Level FlightAware Approximate
Sun 03:09:00 AM 19.3782 -77.3581 342° North  Level FlightAware Approximate
Sun 03:10:00 AM 19.4952 -77.3994 341° North  Level FlightAware Approximate
Sun 03:11:00 AM 19.6122 -77.4409 341° North  Level FlightAware Approximate
Sun 03:12:00 AM 19.7291 -77.4826 341° North  Level FlightAware Approximate
Sun 03:13:00 AM 19.8461 -77.5243 341° North  Level FlightAware Approximate
Sun 03:14:00 AM 19.9630 -77.5660 341° North  Level FlightAware Approximate
Sun 03:15:00 AM 20.0799 -77.6078 341° North  Level FlightAware Approximate
Sun 03:16:00 AM 20.1968 -77.6497 341° North  Level FlightAware Approximate
Sun 03:17:00 AM 20.3137 -77.6916 341° North  Level FlightAware Approximate
Sun 03:18:00 AM 20.4306 -77.7336 341° North  Level FlightAware Approximate
Sun 03:19:00 AM 20.5475 -77.7757 341° North  Level FlightAware Approximate
Sun 03:20:00 AM 20.6644 -77.8178 341° North  Level FlightAware Approximate
Sun 03:21:00 AM 20.7812 -77.8600 341° North  Level FlightAware Approximate
Sun 03:22:00 AM 20.8981 -77.9023 341° North  Level FlightAware Approximate
Sun 03:23:00 AM 21.0149 -77.9446 341° North  Level FlightAware Approximate
Sun 03:24:00 AM 21.1317 -77.9870 341° North  Level FlightAware Approximate
Sun 03:25:00 AM 21.2486 -78.0294 341° North  Level FlightAware Approximate
Sun 03:26:00 AM 21.3654 -78.0720 341° North  Level FlightAware Approximate
Sun 03:27:00 AM 21.4821 -78.1145 341° North  Level FlightAware Approximate
Sun 03:28:00 AM 21.5989 -78.1572 341° North  Level FlightAware Approximate
Sun 03:29:00 AM 21.7157 -78.1999 341° North  Level FlightAware Approximate
Sun 03:30:00 AM 21.8325 -78.2427 341° North  Level FlightAware Approximate
Sun 03:31:00 AM 21.9492 -78.2856 341° North  Level FlightAware Approximate
Sun 03:32:00 AM 22.0659 -78.3286 341° North  Level FlightAware Approximate
Sun 03:33:00 AM 22.1827 -78.3716 341° North  Level FlightAware Approximate
Sun 03:34:00 AM 22.2994 -78.4146 341° North  Level FlightAware Approximate
Sun 03:35:00 AM 22.4161 -78.4578 341° North  Level FlightAware Approximate
Sun 03:36:00 AM 22.5328 -78.5010 341° North  Level FlightAware Approximate
Sun 03:37:00 AM 22.6495 -78.5443 341° North  Level FlightAware Approximate
Sun 03:38:00 AM 22.7661 -78.5877 341° North  Level FlightAware Approximate
Sun 03:39:00 AM 22.8828 -78.6311 341° North  Level FlightAware Approximate
Sun 03:40:00 AM 22.9994 -78.6747 341° North  Level FlightAware Approximate
Sun 03:41:00 AM 23.1161 -78.7183 341° North  Level FlightAware Approximate
Sun 03:42:00 AM 23.2327 -78.7619 341° North  Level FlightAware Approximate
Sun 03:43:00 AM 23.3493 -78.8057 341° North  Level FlightAware Approximate
Sun 03:44:00 AM 23.4659 -78.8495 341° North  Level FlightAware Approximate
Sun 03:45:00 AM 23.5825 -78.8934 341° North  Level FlightAware Approximate
Sun 03:46:00 AM 23.6991 -78.9371 341° North  Level FlightAware Approximate
Sun 03:47:00 AM 23.8158 -78.9808 341° North  Level FlightAware Approximate
Sun 03:48:00 AM 23.9324 -79.0246 341° North  Level FlightAware Approximate
Sun 03:49:00 AM 24.0478 -79.0720 341° North  Level FlightAware Approximate
Sun 03:49:18 AM 22.6975 -77.9083 341° North 454 522 36,000  Level Miami Center
Sun 03:50:00 AM 24.1647 -79.1150 341° North  Level FlightAware Approximate
Sun 03:50:19 AM 22.8119 -77.9475 342° North 444 511 36,000  Level Miami Center
Sun 03:51:00 AM 24.2817 -79.1580 341° North  Level FlightAware Approximate
Sun 03:51:21 AM 22.9244 -77.9958 338° Northwest 438 504 36,000  Level Miami Center
Sun 03:52:00 AM 24.3986 -79.2012 341° North  Level FlightAware Approximate
Sun 03:52:18 AM 23.0453 -78.0533 336° Northwest 449 517 36,000  Level Miami Center
Sun 03:53:00 AM 24.5154 -79.2444 341° North  Level FlightAware Approximate
Sun 03:53:18 AM 23.1597 -78.0972 341° North 449 517 36,000  Level Miami Center
Sun 03:54:00 AM 24.6323 -79.2877 341° North  Level FlightAware Approximate
Sun 03:54:18 AM 23.2806 -78.1594 335° Northwest 454 522 36,000  Level Miami Center
Sun 03:55:18 AM 23.3908 -78.2014 341° North 448 516 36,000  Level Miami Center
Sun 03:56:18 AM 23.5075 -78.2525 338° Northwest 452 520 36,000  Level Miami Center
Sun 03:57:18 AM 23.6200 -78.2989 339° North 449 517 36,000  Level Miami Center
Sun 03:58:18 AM 23.7386 -78.3503 338° Northwest 423 487 36,000  Level Miami Center
Sun 03:59:18 AM 23.8550 -78.3994 339° North 435 501 36,000  Level Miami Center
Sun 04:00:20 AM 23.9486 -78.4414 338° Northwest 447 514 36,000  Level Miami Center
Sun 04:01:19 AM 24.0672 -78.4906 339° North 439 505 36,000  Level Miami Center
Sun 04:02:20 AM 24.1814 -78.5492 335° Northwest 439 505 36,000  Level Miami Center
Sun 04:03:18 AM 24.3061 -78.6031 339° North 444 511 36,000  Level Miami Center
Sun 04:04:18 AM 24.4164 -78.6617 334° Northwest 409 471 36,000  Level Miami Center
Sun 04:05:18 AM 24.5328 -78.7158 337° Northwest 434 499 36,000  Level Miami Center
Sun 04:06:18 AM 24.6428 -78.7703 336° Northwest 439 505 36,000  Level Miami Center
Sun 04:07:18 AM 24.7611 -78.8225 338° Northwest 446 513 36,000  Level Miami Center
Sun 04:08:21 AM 24.8733 -78.8814 335° Northwest 440 506 36,000  Level Miami Center
Sun 04:09:18 AM 24.9875 -78.9314 338° Northwest 435 501 36,000  Level Miami Center
Sun 04:10:18 AM 25.1017 -78.9861 337° Northwest 442 509 36,000  Level Miami Center
Sun 04:11:18 AM 25.2158 -79.0408 337° Northwest 442 509 36,000  Level Miami Center
Sun 04:12:20 AM 25.3278 -79.0981 335° Northwest 442 509 36,000  Level Miami Center
Sun 04:13:20 AM 25.4417 -79.1531 336° Northwest 442 509 36,000 -51 Level Miami Center
Sun 04:14:18 AM 25.5558 -79.2128 335° Northwest 442 509 35,900  Descending Miami Center
Sun 04:15:20 AM 25.6547 -79.2978 322° Northwest 442 509 36,000 50 Climbing Miami Center
Sun 04:16:18 AM 25.7578 -79.3714 327° Northwest 437 503 36,000  Level Miami Center
Sun 04:17:18 AM 25.8822 -79.4339 336° Northwest 437 503 36,000  Level Miami Center
Sun 04:18:18 AM 25.9878 -79.4803 338° Northwest 442 509 36,000  Level Miami Center
Sun 04:19:18 AM 26.1183 -79.5433 337° Northwest 453 521 36,000  Level Miami Center
Sun 04:20:19 AM 26.2342 -79.5992 337° Northwest 453 521 36,000  Level Miami Center
Sun 04:21:19 AM 26.3461 -79.6550 336° Northwest 453 521 36,000  Level Miami Center
Sun 04:22:18 AM 26.4517 -79.7039 337° Northwest 453 521 36,000  Level Miami Center
Sun 04:23:18 AM 26.5800 -79.7650 337° Northwest 453 521 36,000  Level Miami Center
Sun 04:24:18 AM 26.6853 -79.8189 335° Northwest 461 531 36,000  Level Miami Center
Sun 04:25:18 AM 26.8136 -79.8781 338° Northwest 452 520 36,000  Level Miami Center
Sun 04:26:18 AM 26.9067 -79.9244 336° Northwest 457 526 36,000  Level Miami Center
Sun 04:27:18 AM 27.0369 -79.9864 337° Northwest 457 526 36,000  Level Miami Center
Sun 04:28:18 AM 27.1525 -80.0431 336° Northwest 457 526 36,000  Level Miami Center
Sun 04:29:18 AM 27.2683 -80.1025 335° Northwest 457 526 36,000  Level Miami Center
Sun 04:30:19 AM 27.3861 -80.1572 338° Northwest 457 526 36,000  Level Miami Center
Sun 04:31:20 AM 27.5036 -80.2144 337° Northwest 457 526 36,000  Level Miami Center
Sun 04:32:18 AM 27.6192 -80.2739 335° Northwest 457 526 36,000  Level Miami Center
Sun 04:33:18 AM 27.7389 -80.3314 337° Northwest 457 526 36,000  Level Miami Center
Sun 04:34:18 AM 27.8669 -80.3917 337° Northwest 457 526 36,000  Level Miami Center
Sun 04:35:19 AM 27.9719 -80.4467 335° Northwest 457 526 36,000  Level Miami Center
Sun 04:36:19 AM 28.1039 -80.5075 338° Northwest 457 526 36,000  Level Miami Center
Sun 04:40:01 AM 28.5239 -80.7214 336° Northwest 455 524 36,000  Level Jacksonville Center
Sun 04:41:01 AM 28.6397 -80.7803 336° Northwest 444 511 36,000  Level Jacksonville Center
Sun 04:42:01 AM 28.7594 -80.8369 337° Northwest 449 517 36,000  Level Jacksonville Center
Sun 04:43:01 AM 28.8731 -80.8961 335° Northwest 449 517 36,000  Level Jacksonville Center
Sun 04:44:01 AM 28.9908 -80.9533 337° Northwest 444 511 36,000  Level Jacksonville Center
Sun 04:45:01 AM 29.1067 -81.0128 336° Northwest 444 511 36,000  Level Jacksonville Center
Sun 04:46:01 AM 29.2244 -81.0722 336° Northwest 450 518 36,000  Level Jacksonville Center
Sun 04:47:01 AM 29.3400 -81.1322 336° Northwest 450 518 36,000  Level Jacksonville Center
Sun 04:48:01 AM 29.4536 -81.2039 331° Northwest 455 524 36,000  Level Jacksonville Center
Sun 04:49:01 AM 29.5631 -81.2736 331° Northwest 455 524 36,000  Level Jacksonville Center
Sun 04:50:01 AM 29.6767 -81.3436 332° Northwest 455 524 36,000  Level Jacksonville Center
Sun 04:51:01 AM 29.7883 -81.4136 331° Northwest 455 524 36,000  Level Jacksonville Center
Sun 04:52:01 AM 29.9039 -81.4836 332° Northwest 462 532 36,000  Level Jacksonville Center
Sun 04:53:01 AM 30.0153 -81.5542 331° Northwest 462 532 36,000  Level Jacksonville Center
Sun 04:54:01 AM 30.1308 -81.6219 333° Northwest 467 537 36,000  Level Jacksonville Center
Sun 04:55:01 AM 30.2419 -81.6903 332° Northwest 462 532 36,000  Level Jacksonville Center
Sun 04:56:01 AM 30.3681 -81.7683 332° Northwest 462 532 36,000  Level Jacksonville Center
Sun 04:57:01 AM 30.4708 -81.8297 333° Northwest 462 532 36,000  Level Jacksonville Center
Sun 04:58:01 AM 30.5989 -81.9150 330° Northwest 468 539 36,000  Level Jacksonville Center
Sun 04:59:01 AM 30.7142 -81.9839 333° Northwest 468 539 36,000  Level Jacksonville Center
Sun 05:00:01 AM 30.8336 -82.0408 338° Northwest 458 527 36,000  Level Jacksonville Center
Sun 05:01:01 AM 30.9572 -82.0956 339° North 458 527 36,000  Level Jacksonville Center
Sun 05:02:01 AM 31.0786 -82.1528 338° Northwest 464 534 36,000  Level Jacksonville Center
Sun 05:03:01 AM 31.2000 -82.2053 340° North 464 534 36,000  Level Jacksonville Center
Sun 05:04:01 AM 31.3256 -82.2628 339° North 469 540 36,000  Level Jacksonville Center
Sun 05:05:55 AM 31.5453 -82.3600 339° North 467 537 36,000  Level Atlanta Center
Sun 05:06:55 AM 31.6692 -82.4161 339° North 472 543 36,000  Level Atlanta Center
Sun 05:07:55 AM 31.7931 -82.4725 339° North 472 543 36,000  Level Atlanta Center
Sun 05:08:55 AM 31.9147 -82.5292 338° Northwest 477 549 36,000  Level Atlanta Center
Sun 05:09:55 AM 32.0428 -82.5883 339° North 477 549 36,000  Level Atlanta Center
Sun 05:10:55 AM 32.1644 -82.6453 338° Northwest 477 549 36,000  Level Atlanta Center
Sun 05:11:55 AM 32.2903 -82.7022 339° North 477 549 36,000  Level Atlanta Center
Sun 05:12:55 AM 32.4039 -82.7817 329° Northwest 472 543 36,000 -400 Level Atlanta Center
Sun 05:13:55 AM 32.4947 -82.8961 313° West 472 543 35,200 -1,600 Descending Atlanta Center
Sun 05:14:55 AM 32.5856 -83.0158 312° West 472 543 32,800 -2,750 Descending Atlanta Center
Sun 05:15:55 AM 32.6806 -83.1331 314° West 485 558 29,700 -3,050 Descending Atlanta Center
Sun 05:16:55 AM 32.7878 -83.2656 314° West 506 582 26,700 -2,700 Descending Atlanta Center
Sun 05:17:55 AM 32.8803 -83.3858 312° West 501 577 24,300 -2,400 Descending Atlanta Center
Sun 05:18:55 AM 32.9686 -83.4942 314° West 480 552 21,900 -2,400 Descending Atlanta Center
Sun 05:19:55 AM 33.0544 -83.6050 313° West 470 541 19,500 -2,250 Descending Atlanta Center
Sun 05:20:55 AM 33.1322 -83.7014 314° West 453 521 17,400 -2,324 Descending Atlanta Center
Sun 05:21:46 AM 33.2000 -83.8000 309° West 433 498 15,200 -1,650 Descending Atlanta TRACON
Sun 05:22:55 AM 33.2911 -83.9219 312° West 425 489 14,100 -884 Descending Atlanta Center
Sun 05:23:55 AM 33.3581 -84.0239 308° West 405 466 13,300 -800 Descending Atlanta Center
Sun 05:24:55 AM 33.4247 -84.1258 308° West 399 459 12,500 -919 Descending Atlanta Center
Sun 05:25:46 AM 33.4833 -84.2000 313° West 370 426 11,600 -919 Descending Atlanta TRACON
Sun 05:26:46 AM 33.5333 -84.3000 301° West 334 384 10,800 -900 Descending Atlanta TRACON
Sun 05:27:46 AM 33.5500 -84.4000 281° West 313 360 9,800 -1,200 Descending Atlanta TRACON
Sun 05:28:46 AM 33.5500 -84.5000 270° West 305 351 8,400 -1,450 Descending Atlanta TRACON
Sun 05:29:46 AM 33.5500 -84.6000 270° West 263 303 6,900 -1,632 Descending Atlanta TRACON
Sun 05:30:40 AM 33.5500 -84.6667 270° West 248 285 5,300 -1,684 Descending Atlanta TRACON
Sun 05:31:40 AM 33.6000 -84.7000 331° Northwest 245 282 3,700 -1,150 Descending Atlanta TRACON
Sun 05:32:40 AM 33.6333 -84.6667 40° Northeast 206 237 3,000 -368 Descending Atlanta TRACON
Sun 05:33:34 AM 33.6333 -84.6167 90° East 171 197 3,000 -158 Level Atlanta TRACON
Sun 05:34:34 AM 33.6333 -84.5500 90° East 164 189 2,700 -300 Descending Atlanta TRACON

Login

Don't have an account? Register now (free) for customized features, flight alerts, and more!